sensor_id;sensor_type;location;lat;lon;timestamp;P1;durP1;ratioP1;P2;durP2;ratioP2
67514;SDS011;60646;55.802;37.032;2023-03-03T00:02:20;0.82;;;0.50;;
67514;SDS011;60646;55.802;37.032;2023-03-03T00:04:45;3.92;;;0.60;;
67514;SDS011;60646;55.802;37.032;2023-03-03T00:07:11;1.35;;;0.60;;
67514;SDS011;60646;55.802;37.032;2023-03-03T00:09:39;3.10;;;0.60;;
67514;SDS011;60646;55.802;37.032;2023-03-03T00:12:17;2.78;;;0.60;;
67514;SDS011;60646;55.802;37.032;2023-03-03T00:14:47;1.73;;;0.40;;
67514;SDS011;60646;55.802;37.032;2023-03-03T00:17:23;2.90;;;0.63;;
67514;SDS011;60646;55.802;37.032;2023-03-03T00:19:53;1.20;;;0.50;;
67514;SDS011;60646;55.802;37.032;2023-03-03T00:22:27;1.15;;;0.60;;
67514;SDS011;60646;55.802;37.032;2023-03-03T00:24:57;1.38;;;0.40;;
67514;SDS011;60646;55.802;37.032;2023-03-03T00:29:56;0.55;;;0.43;;
67514;SDS011;60646;55.802;37.032;2023-03-03T00:32:41;1.95;;;0.47;;
67514;SDS011;60646;55.802;37.032;2023-03-03T00:37:46;0.85;;;0.82;;
67514;SDS011;60646;55.802;37.032;2023-03-03T00:40:15;0.52;;;0.40;;
67514;SDS011;60646;55.802;37.032;2023-03-03T00:42:52;1.20;;;0.47;;
67514;SDS011;60646;55.802;37.032;2023-03-03T00:45:25;0.98;;;0.55;;
67514;SDS011;60646;55.802;37.032;2023-03-03T00:47:56;0.50;;;0.40;;
67514;SDS011;60646;55.802;37.032;2023-03-03T00:55:45;0.40;;;0.40;;
67514;SDS011;60646;55.802;37.032;2023-03-03T00:58:12;1.67;;;0.60;;
67514;SDS011;60646;55.802;37.032;2023-03-03T01:00:42;0.45;;;0.40;;
67514;SDS011;60646;55.802;37.032;2023-03-03T01:03:14;1.10;;;0.50;;
67514;SDS011;60646;55.802;37.032;2023-03-03T01:05:43;0.35;;;0.35;;
67514;SDS011;60646;55.802;37.032;2023-03-03T01:08:09;1.75;;;0.40;;
67514;SDS011;60646;55.802;37.032;2023-03-03T01:10:37;1.48;;;0.52;;
67514;SDS011;60646;55.802;37.032;2023-03-03T01:13:06;0.85;;;0.60;;
67514;SDS011;60646;55.802;37.032;2023-03-03T01:15:32;2.35;;;0.85;;
67514;SDS011;60646;55.802;37.032;2023-03-03T01:17:58;1.23;;;0.50;;
67514;SDS011;60646;55.802;37.032;2023-03-03T01:20:24;2.65;;;0.63;;
67514;SDS011;60646;55.802;37.032;2023-03-03T01:22:49;3.00;;;0.68;;
67514;SDS011;60646;55.802;37.032;2023-03-03T01:25:15;1.23;;;0.40;;
67514;SDS011;60646;55.802;37.032;2023-03-03T01:27:41;2.08;;;0.70;;
67514;SDS011;60646;55.802;37.032;2023-03-03T01:30:07;1.85;;;0.65;;
67514;SDS011;60646;55.802;37.032;2023-03-03T01:32:33;1.02;;;0.60;;
67514;SDS011;60646;55.802;37.032;2023-03-03T01:34:59;1.58;;;0.60;;
67514;SDS011;60646;55.802;37.032;2023-03-03T01:37:25;2.70;;;0.63;;
67514;SDS011;60646;55.802;37.032;2023-03-03T01:39:54;0.65;;;0.50;;
67514;SDS011;60646;55.802;37.032;2023-03-03T01:42:38;2.85;;;0.65;;
67514;SDS011;60646;55.802;37.032;2023-03-03T01:45:09;2.58;;;0.60;;
67514;SDS011;60646;55.802;37.032;2023-03-03T01:52:56;2.03;;;0.50;;
67514;SDS011;60646;55.802;37.032;2023-03-03T01:55:28;2.47;;;0.77;;
67514;SDS011;60646;55.802;37.032;2023-03-03T01:57:59;1.80;;;0.70;;
67514;SDS011;60646;55.802;37.032;2023-03-03T02:00:48;1.40;;;0.60;;
67514;SDS011;60646;55.802;37.032;2023-03-03T02:03:17;1.23;;;0.63;;
67514;SDS011;60646;55.802;37.032;2023-03-03T02:05:45;2.20;;;0.50;;
67514;SDS011;60646;55.802;37.032;2023-03-03T02:08:11;3.78;;;0.60;;
67514;SDS011;60646;55.802;37.032;2023-03-03T02:13:10;2.50;;;0.70;;
67514;SDS011;60646;55.802;37.032;2023-03-03T02:15:35;1.15;;;0.50;;
67514;SDS011;60646;55.802;37.032;2023-03-03T02:18:04;1.35;;;0.50;;
67514;SDS011;60646;55.802;37.032;2023-03-03T02:28:35;1.65;;;0.80;;
67514;SDS011;60646;55.802;37.032;2023-03-03T02:31:07;1.95;;;0.65;;
67514;SDS011;60646;55.802;37.032;2023-03-03T02:33:46;2.55;;;0.80;;
67514;SDS011;60646;55.802;37.032;2023-03-03T02:36:14;1.90;;;0.63;;
67514;SDS011;60646;55.802;37.032;2023-03-03T02:44:26;1.88;;;0.82;;
67514;SDS011;60646;55.802;37.032;2023-03-03T02:46:54;1.00;;;0.63;;
67514;SDS011;60646;55.802;37.032;2023-03-03T02:49:21;1.80;;;0.70;;
67514;SDS011;60646;55.802;37.032;2023-03-03T02:51:52;1.48;;;0.80;;
67514;SDS011;60646;55.802;37.032;2023-03-03T02:54:19;4.95;;;0.98;;
67514;SDS011;60646;55.802;37.032;2023-03-03T02:56:46;1.35;;;0.73;;
67514;SDS011;60646;55.802;37.032;2023-03-03T02:59:12;1.13;;;0.43;;
67514;SDS011;60646;55.802;37.032;2023-03-03T03:01:43;1.08;;;0.60;;
67514;SDS011;60646;55.802;37.032;2023-03-03T03:04:13;1.85;;;0.68;;
67514;SDS011;60646;55.802;37.032;2023-03-03T03:06:44;2.88;;;0.90;;
67514;SDS011;60646;55.802;37.032;2023-03-03T03:09:12;3.17;;;0.68;;
67514;SDS011;60646;55.802;37.032;2023-03-03T03:11:39;3.97;;;0.80;;
67514;SDS011;60646;55.802;37.032;2023-03-03T03:14:06;3.50;;;0.60;;
67514;SDS011;60646;55.802;37.032;2023-03-03T03:16:34;2.40;;;0.70;;
67514;SDS011;60646;55.802;37.032;2023-03-03T03:19:00;2.80;;;0.80;;
67514;SDS011;60646;55.802;37.032;2023-03-03T03:21:27;2.22;;;0.50;;
67514;SDS011;60646;55.802;37.032;2023-03-03T03:23:54;2.28;;;0.70;;
67514;SDS011;60646;55.802;37.032;2023-03-03T03:26:20;2.47;;;0.73;;
67514;SDS011;60646;55.802;37.032;2023-03-03T03:28:47;2.13;;;0.73;;
67514;SDS011;60646;55.802;37.032;2023-03-03T03:31:14;3.33;;;0.70;;
67514;SDS011;60646;55.802;37.032;2023-03-03T03:33:40;0.95;;;0.65;;
67514;SDS011;60646;55.802;37.032;2023-03-03T03:36:06;2.28;;;0.77;;
67514;SDS011;60646;55.802;37.032;2023-03-03T03:38:33;0.65;;;0.50;;
67514;SDS011;60646;55.802;37.032;2023-03-03T03:41:02;3.47;;;0.75;;
67514;SDS011;60646;55.802;37.032;2023-03-03T03:43:29;2.42;;;0.70;;
67514;SDS011;60646;55.802;37.032;2023-03-03T03:45:56;1.10;;;0.65;;
67514;SDS011;60646;55.802;37.032;2023-03-03T03:48:22;2.47;;;0.50;;
67514;SDS011;60646;55.802;37.032;2023-03-03T03:50:49;3.92;;;0.60;;
67514;SDS011;60646;55.802;37.032;2023-03-03T03:53:16;2.28;;;0.93;;
67514;SDS011;60646;55.802;37.032;2023-03-03T03:55:43;2.40;;;0.80;;
67514;SDS011;60646;55.802;37.032;2023-03-03T03:58:12;3.15;;;0.73;;
67514;SDS011;60646;55.802;37.032;2023-03-03T04:00:40;1.80;;;0.73;;
67514;SDS011;60646;55.802;37.032;2023-03-03T04:03:07;0.55;;;0.55;;
67514;SDS011;60646;55.802;37.032;2023-03-03T04:05:33;2.40;;;0.60;;
67514;SDS011;60646;55.802;37.032;2023-03-03T04:08:00;2.83;;;0.70;;
67514;SDS011;60646;55.802;37.032;2023-03-03T04:10:26;2.10;;;0.60;;
67514;SDS011;60646;55.802;37.032;2023-03-03T04:12:52;1.27;;;0.55;;
67514;SDS011;60646;55.802;37.032;2023-03-03T04:15:19;0.98;;;0.57;;
67514;SDS011;60646;55.802;37.032;2023-03-03T04:17:46;1.55;;;0.63;;
67514;SDS011;60646;55.802;37.032;2023-03-03T04:20:13;3.15;;;0.70;;
67514;SDS011;60646;55.802;37.032;2023-03-03T04:22:41;2.47;;;0.50;;
67514;SDS011;60646;55.802;37.032;2023-03-03T04:25:08;2.85;;;0.77;;
67514;SDS011;60646;55.802;37.032;2023-03-03T04:27:40;2.50;;;0.80;;
67514;SDS011;60646;55.802;37.032;2023-03-03T04:30:08;3.45;;;0.50;;
67514;SDS011;60646;55.802;37.032;2023-03-03T04:32:36;2.40;;;0.70;;
67514;SDS011;60646;55.802;37.032;2023-03-03T04:35:04;4.88;;;0.88;;
67514;SDS011;60646;55.802;37.032;2023-03-03T04:37:32;2.42;;;0.55;;
67514;SDS011;60646;55.802;37.032;2023-03-03T04:39:58;2.40;;;0.73;;
67514;SDS011;60646;55.802;37.032;2023-03-03T04:42:24;0.82;;;0.47;;
67514;SDS011;60646;55.802;37.032;2023-03-03T04:44:53;3.50;;;0.68;;
67514;SDS011;60646;55.802;37.032;2023-03-03T04:47:18;1.65;;;0.70;;
67514;SDS011;60646;55.802;37.032;2023-03-03T04:49:44;0.82;;;0.52;;
67514;SDS011;60646;55.802;37.032;2023-03-03T04:52:10;4.07;;;0.77;;
67514;SDS011;60646;55.802;37.032;2023-03-03T04:54:37;0.57;;;0.57;;
67514;SDS011;60646;55.802;37.032;2023-03-03T04:57:03;1.98;;;0.47;;
67514;SDS011;60646;55.802;37.032;2023-03-03T04:59:29;3.20;;;0.82;;
67514;SDS011;60646;55.802;37.032;2023-03-03T05:01:54;3.90;;;0.90;;
67514;SDS011;60646;55.802;37.032;2023-03-03T05:07:21;5.20;;;0.88;;
67514;SDS011;60646;55.802;37.032;2023-03-03T05:09:48;3.15;;;1.02;;
67514;SDS011;60646;55.802;37.032;2023-03-03T05:12:14;3.13;;;0.73;;
67514;SDS011;60646;55.802;37.032;2023-03-03T05:14:41;2.63;;;0.60;;
67514;SDS011;60646;55.802;37.032;2023-03-03T05:17:07;3.47;;;0.57;;
67514;SDS011;60646;55.802;37.032;2023-03-03T05:19:33;2.70;;;0.50;;
67514;SDS011;60646;55.802;37.032;2023-03-03T05:21:59;2.08;;;0.50;;
67514;SDS011;60646;55.802;37.032;2023-03-03T05:24:26;3.38;;;0.70;;
67514;SDS011;60646;55.802;37.032;2023-03-03T05:26:52;4.05;;;0.90;;
67514;SDS011;60646;55.802;37.032;2023-03-03T05:29:18;3.30;;;0.60;;
67514;SDS011;60646;55.802;37.032;2023-03-03T05:31:44;4.90;;;0.80;;
67514;SDS011;60646;55.802;37.032;2023-03-03T05:34:10;2.45;;;0.50;;
67514;SDS011;60646;55.802;37.032;2023-03-03T05:36:35;2.05;;;0.70;;
67514;SDS011;60646;55.802;37.032;2023-03-03T05:39:01;3.40;;;0.65;;
67514;SDS011;60646;55.802;37.032;2023-03-03T05:44:53;3.88;;;0.93;;
67514;SDS011;60646;55.802;37.032;2023-03-03T05:47:19;4.97;;;1.00;;
67514;SDS011;60646;55.802;37.032;2023-03-03T05:49:45;2.03;;;0.70;;
67514;SDS011;60646;55.802;37.032;2023-03-03T05:52:10;3.40;;;0.80;;
67514;SDS011;60646;55.802;37.032;2023-03-03T05:54:36;3.58;;;0.88;;
67514;SDS011;60646;55.802;37.032;2023-03-03T05:57:02;2.42;;;0.82;;
67514;SDS011;60646;55.802;37.032;2023-03-03T05:59:31;3.78;;;1.23;;
67514;SDS011;60646;55.802;37.032;2023-03-03T06:01:56;4.00;;;0.63;;
67514;SDS011;60646;55.802;37.032;2023-03-03T06:04:22;2.65;;;0.70;;
67514;SDS011;60646;55.802;37.032;2023-03-03T06:06:48;2.15;;;0.82;;
67514;SDS011;60646;55.802;37.032;2023-03-03T06:09:14;1.95;;;0.77;;
67514;SDS011;60646;55.802;37.032;2023-03-03T06:11:39;1.38;;;0.50;;
67514;SDS011;60646;55.802;37.032;2023-03-03T06:14:05;2.70;;;0.73;;
67514;SDS011;60646;55.802;37.032;2023-03-03T06:16:32;3.35;;;0.70;;
67514;SDS011;60646;55.802;37.032;2023-03-03T06:18:57;3.08;;;0.80;;
67514;SDS011;60646;55.802;37.032;2023-03-03T06:21:23;1.38;;;0.60;;
67514;SDS011;60646;55.802;37.032;2023-03-03T06:23:50;3.38;;;0.93;;
67514;SDS011;60646;55.802;37.032;2023-03-03T06:26:28;5.53;;;1.00;;
67514;SDS011;60646;55.802;37.032;2023-03-03T06:28:58;3.92;;;0.85;;
67514;SDS011;60646;55.802;37.032;2023-03-03T06:31:24;1.27;;;0.60;;
67514;SDS011;60646;55.802;37.032;2023-03-03T06:33:54;1.35;;;0.82;;
67514;SDS011;60646;55.802;37.032;2023-03-03T06:36:19;4.13;;;0.73;;
67514;SDS011;60646;55.802;37.032;2023-03-03T06:38:45;3.60;;;0.82;;
67514;SDS011;60646;55.802;37.032;2023-03-03T06:41:11;2.13;;;0.70;;
67514;SDS011;60646;55.802;37.032;2023-03-03T06:43:37;2.92;;;0.50;;
67514;SDS011;60646;55.802;37.032;2023-03-03T06:46:03;5.75;;;0.57;;
67514;SDS011;60646;55.802;37.032;2023-03-03T06:48:30;2.33;;;0.80;;
67514;SDS011;60646;55.802;37.032;2023-03-03T06:50:58;2.80;;;0.75;;
67514;SDS011;60646;55.802;37.032;2023-03-03T06:53:24;1.38;;;0.60;;
67514;SDS011;60646;55.802;37.032;2023-03-03T06:55:50;1.20;;;0.55;;
67514;SDS011;60646;55.802;37.032;2023-03-03T06:58:17;3.08;;;0.80;;
67514;SDS011;60646;55.802;37.032;2023-03-03T07:00:45;0.85;;;0.52;;
67514;SDS011;60646;55.802;37.032;2023-03-03T07:03:23;5.05;;;0.80;;
67514;SDS011;60646;55.802;37.032;2023-03-03T07:06:05;3.63;;;1.27;;
67514;SDS011;60646;55.802;37.032;2023-03-03T07:08:39;1.80;;;0.95;;
67514;SDS011;60646;55.802;37.032;2023-03-03T07:11:07;3.50;;;1.05;;
67514;SDS011;60646;55.802;37.032;2023-03-03T07:13:39;2.72;;;0.85;;
67514;SDS011;60646;55.802;37.032;2023-03-03T07:16:10;1.42;;;0.55;;
67514;SDS011;60646;55.802;37.032;2023-03-03T07:21:16;2.75;;;1.00;;
67514;SDS011;60646;55.802;37.032;2023-03-03T07:23:44;3.90;;;0.80;;
67514;SDS011;60646;55.802;37.032;2023-03-03T07:26:13;2.78;;;0.70;;
67514;SDS011;60646;55.802;37.032;2023-03-03T07:28:41;2.80;;;0.60;;
67514;SDS011;60646;55.802;37.032;2023-03-03T07:33:53;5.63;;;0.80;;
67514;SDS011;60646;55.802;37.032;2023-03-03T07:36:27;1.75;;;0.80;;
67514;SDS011;60646;55.802;37.032;2023-03-03T07:38:58;1.55;;;0.68;;
67514;SDS011;60646;55.802;37.032;2023-03-03T07:41:26;1.30;;;0.65;;
67514;SDS011;60646;55.802;37.032;2023-03-03T07:44:05;2.03;;;0.50;;
67514;SDS011;60646;55.802;37.032;2023-03-03T07:46:49;2.70;;;0.90;;
67514;SDS011;60646;55.802;37.032;2023-03-03T07:52:01;1.98;;;0.60;;
67514;SDS011;60646;55.802;37.032;2023-03-03T07:54:44;0.70;;;0.50;;
67514;SDS011;60646;55.802;37.032;2023-03-03T07:59:47;1.42;;;0.95;;
67514;SDS011;60646;55.802;37.032;2023-03-03T08:02:22;2.47;;;0.73;;
67514;SDS011;60646;55.802;37.032;2023-03-03T08:04:53;2.22;;;0.70;;
67514;SDS011;60646;55.802;37.032;2023-03-03T08:07:20;5.70;;;0.88;;
67514;SDS011;60646;55.802;37.032;2023-03-03T08:10:00;2.63;;;0.60;;
67514;SDS011;60646;55.802;37.032;2023-03-03T08:12:41;1.50;;;0.65;;
67514;SDS011;60646;55.802;37.032;2023-03-03T08:15:17;4.57;;;1.00;;
67514;SDS011;60646;55.802;37.032;2023-03-03T08:17:50;1.02;;;0.50;;
67514;SDS011;60646;55.802;37.032;2023-03-03T08:22:58;2.10;;;0.90;;
67514;SDS011;60646;55.802;37.032;2023-03-03T08:25:24;1.75;;;0.50;;
67514;SDS011;60646;55.802;37.032;2023-03-03T08:27:49;2.97;;;0.70;;
67514;SDS011;60646;55.802;37.032;2023-03-03T08:30:15;0.85;;;0.50;;
67514;SDS011;60646;55.802;37.032;2023-03-03T08:32:41;3.25;;;0.60;;
67514;SDS011;60646;55.802;37.032;2023-03-03T08:35:07;0.65;;;0.57;;
67514;SDS011;60646;55.802;37.032;2023-03-03T08:37:33;1.80;;;1.15;;
67514;SDS011;60646;55.802;37.032;2023-03-03T08:39:58;2.10;;;0.75;;
67514;SDS011;60646;55.802;37.032;2023-03-03T08:42:24;3.63;;;1.05;;
67514;SDS011;60646;55.802;37.032;2023-03-03T08:45:08;3.35;;;0.95;;
67514;SDS011;60646;55.802;37.032;2023-03-03T08:47:34;1.95;;;0.52;;
67514;SDS011;60646;55.802;37.032;2023-03-03T08:50:00;3.50;;;0.60;;
67514;SDS011;60646;55.802;37.032;2023-03-03T08:52:25;3.75;;;0.90;;
67514;SDS011;60646;55.802;37.032;2023-03-03T08:54:51;2.30;;;0.70;;
67514;SDS011;60646;55.802;37.032;2023-03-03T08:57:17;2.85;;;0.50;;
67514;SDS011;60646;55.802;37.032;2023-03-03T08:59:43;1.02;;;0.63;;
67514;SDS011;60646;55.802;37.032;2023-03-03T09:02:09;4.53;;;0.60;;
67514;SDS011;60646;55.802;37.032;2023-03-03T09:04:35;2.97;;;0.80;;
67514;SDS011;60646;55.802;37.032;2023-03-03T09:07:01;2.08;;;0.57;;
67514;SDS011;60646;55.802;37.032;2023-03-03T09:09:27;3.38;;;0.68;;
67514;SDS011;60646;55.802;37.032;2023-03-03T09:11:57;2.33;;;0.70;;
67514;SDS011;60646;55.802;37.032;2023-03-03T09:14:25;2.25;;;0.80;;
67514;SDS011;60646;55.802;37.032;2023-03-03T09:16:53;2.35;;;0.93;;
67514;SDS011;60646;55.802;37.032;2023-03-03T09:19:22;1.17;;;0.65;;
67514;SDS011;60646;55.802;37.032;2023-03-03T09:21:49;3.88;;;0.82;;
67514;SDS011;60646;55.802;37.032;2023-03-03T09:24:40;0.80;;;0.52;;
67514;SDS011;60646;55.802;37.032;2023-03-03T09:27:11;2.30;;;0.50;;
67514;SDS011;60646;55.802;37.032;2023-03-03T09:29:43;2.58;;;0.57;;
67514;SDS011;60646;55.802;37.032;2023-03-03T09:41:10;0.98;;;0.50;;
67514;SDS011;60646;55.802;37.032;2023-03-03T09:46:42;2.22;;;1.00;;
67514;SDS011;60646;55.802;37.032;2023-03-03T09:49:22;1.52;;;0.60;;
67514;SDS011;60646;55.802;37.032;2023-03-03T10:08:57;1.33;;;0.70;;
67514;SDS011;60646;55.802;37.032;2023-03-03T10:19:45;0.98;;;0.40;;
67514;SDS011;60646;55.802;37.032;2023-03-03T10:25:01;3.10;;;0.80;;
67514;SDS011;60646;55.802;37.032;2023-03-03T10:27:35;4.60;;;1.80;;
67514;SDS011;60646;55.802;37.032;2023-03-03T10:46:40;2.10;;;0.60;;
67514;SDS011;60646;55.802;37.032;2023-03-03T10:49:38;2.35;;;0.60;;
67514;SDS011;60646;55.802;37.032;2023-03-03T10:52:30;2.25;;;0.52;;
67514;SDS011;60646;55.802;37.032;2023-03-03T11:00:58;1.02;;;0.47;;
67514;SDS011;60646;55.802;37.032;2023-03-03T11:13:47;0.43;;;0.40;;
67514;SDS011;60646;55.802;37.032;2023-03-03T11:22:07;2.80;;;1.77;;
67514;SDS011;60646;55.802;37.032;2023-03-03T11:27:38;3.13;;;2.25;;
67514;SDS011;60646;55.802;37.032;2023-03-03T11:39:31;11.98;;;5.70;;
67514;SDS011;60646;55.802;37.032;2023-03-03T11:47:51;37.28;;;25.92;;
67514;SDS011;60646;55.802;37.032;2023-03-03T11:50:25;15.48;;;9.90;;
67514;SDS011;60646;55.802;37.032;2023-03-03T11:56:26;6.63;;;3.63;;
67514;SDS011;60646;55.802;37.032;2023-03-03T11:58:47;10.80;;;5.78;;
67514;SDS011;60646;55.802;37.032;2023-03-03T12:01:33;20.50;;;14.23;;
67514;SDS011;60646;55.802;37.032;2023-03-03T12:04:13;16.83;;;9.73;;
67514;SDS011;60646;55.802;37.032;2023-03-03T12:12:00;36.75;;;18.77;;
67514;SDS011;60646;55.802;37.032;2023-03-03T12:25:46;15.55;;;7.88;;
67514;SDS011;60646;55.802;37.032;2023-03-03T12:28:27;10.23;;;3.35;;
67514;SDS011;60646;55.802;37.032;2023-03-03T12:34:04;13.48;;;4.50;;
67514;SDS011;60646;55.802;37.032;2023-03-03T12:36:49;3.90;;;2.42;;
67514;SDS011;60646;55.802;37.032;2023-03-03T12:39:34;4.35;;;1.35;;
67514;SDS011;60646;55.802;37.032;2023-03-03T12:42:51;23.08;;;10.35;;
67514;SDS011;60646;55.802;37.032;2023-03-03T12:45:35;37.15;;;13.52;;
67514;SDS011;60646;55.802;37.032;2023-03-03T12:53:39;29.70;;;14.15;;
67514;SDS011;60646;55.802;37.032;2023-03-03T12:56:08;14.15;;;5.55;;
67514;SDS011;60646;55.802;37.032;2023-03-03T12:59:11;25.15;;;9.23;;
67514;SDS011;60646;55.802;37.032;2023-03-03T13:06:58;16.90;;;5.25;;
67514;SDS011;60646;55.802;37.032;2023-03-03T13:17:37;25.42;;;7.28;;
67514;SDS011;60646;55.802;37.032;2023-03-03T13:22:52;12.77;;;4.60;;
67514;SDS011;60646;55.802;37.032;2023-03-03T13:25:33;17.30;;;5.72;;
67514;SDS011;60646;55.802;37.032;2023-03-03T13:28:11;13.82;;;5.18;;
67514;SDS011;60646;55.802;37.032;2023-03-03T13:31:07;15.82;;;4.85;;
67514;SDS011;60646;55.802;37.032;2023-03-03T13:33:43;5.88;;;2.55;;
67514;SDS011;60646;55.802;37.032;2023-03-03T13:36:25;8.68;;;2.80;;
67514;SDS011;60646;55.802;37.032;2023-03-03T13:38:59;9.15;;;3.72;;
67514;SDS011;60646;55.802;37.032;2023-03-03T13:41:32;11.95;;;3.70;;
67514;SDS011;60646;55.802;37.032;2023-03-03T13:44:14;9.65;;;3.88;;
67514;SDS011;60646;55.802;37.032;2023-03-03T14:00:06;9.88;;;5.57;;
67514;SDS011;60646;55.802;37.032;2023-03-03T14:05:36;10.05;;;3.35;;
67514;SDS011;60646;55.802;37.032;2023-03-03T14:08:11;5.97;;;2.45;;
67514;SDS011;60646;55.802;37.032;2023-03-03T14:10:57;2.88;;;1.48;;
67514;SDS011;60646;55.802;37.032;2023-03-03T14:13:37;2.67;;;1.17;;
67514;SDS011;60646;55.802;37.032;2023-03-03T14:19:23;2.10;;;1.10;;
67514;SDS011;60646;55.802;37.032;2023-03-03T14:24:55;9.43;;;2.22;;
67514;SDS011;60646;55.802;37.032;2023-03-03T14:30:24;2.53;;;1.20;;
67514;SDS011;60646;55.802;37.032;2023-03-03T14:35:34;2.90;;;0.80;;
67514;SDS011;60646;55.802;37.032;2023-03-03T14:40:33;2.90;;;0.60;;
67514;SDS011;60646;55.802;37.032;2023-03-03T14:43:04;1.10;;;1.00;;
67514;SDS011;60646;55.802;37.032;2023-03-03T14:45:43;0.90;;;0.45;;
67514;SDS011;60646;55.802;37.032;2023-03-03T14:50:41;3.50;;;0.47;;
67514;SDS011;60646;55.802;37.032;2023-03-03T15:04:42;1.77;;;0.75;;
67514;SDS011;60646;55.802;37.032;2023-03-03T15:09:48;1.55;;;0.60;;
67514;SDS011;60646;55.802;37.032;2023-03-03T15:14:47;2.35;;;0.70;;
67514;SDS011;60646;55.802;37.032;2023-03-03T15:35:51;2.47;;;0.60;;
67514;SDS011;60646;55.802;37.032;2023-03-03T15:38:25;1.38;;;0.60;;
67514;SDS011;60646;55.802;37.032;2023-03-03T15:44:18;1.02;;;0.80;;
67514;SDS011;60646;55.802;37.032;2023-03-03T15:52:11;2.10;;;0.50;;
67514;SDS011;60646;55.802;37.032;2023-03-03T16:03:44;1.75;;;0.60;;
67514;SDS011;60646;55.802;37.032;2023-03-03T16:06:18;0.90;;;0.60;;
67514;SDS011;60646;55.802;37.032;2023-03-03T16:08:55;1.63;;;0.68;;
67514;SDS011;60646;55.802;37.032;2023-03-03T16:17:04;1.20;;;0.70;;
67514;SDS011;60646;55.802;37.032;2023-03-03T16:19:47;0.60;;;0.50;;
67514;SDS011;60646;55.802;37.032;2023-03-03T16:28:22;3.65;;;0.82;;
67514;SDS011;60646;55.802;37.032;2023-03-03T16:31:20;2.97;;;0.80;;
67514;SDS011;60646;55.802;37.032;2023-03-03T16:42:33;1.30;;;0.60;;
67514;SDS011;60646;55.802;37.032;2023-03-03T16:52:46;1.52;;;0.50;;
67514;SDS011;60646;55.802;37.032;2023-03-03T16:55:19;3.35;;;0.60;;
67514;SDS011;60646;55.802;37.032;2023-03-03T16:57:56;5.43;;;1.40;;
67514;SDS011;60646;55.802;37.032;2023-03-03T17:00:33;3.53;;;1.30;;
67514;SDS011;60646;55.802;37.032;2023-03-03T17:06:03;2.97;;;1.10;;
67514;SDS011;60646;55.802;37.032;2023-03-03T17:19:36;3.20;;;1.13;;
67514;SDS011;60646;55.802;37.032;2023-03-03T17:25:21;2.58;;;1.20;;
67514;SDS011;60646;55.802;37.032;2023-03-03T17:30:38;2.28;;;1.05;;
67514;SDS011;60646;55.802;37.032;2023-03-03T17:38:41;1.42;;;1.00;;
67514;SDS011;60646;55.802;37.032;2023-03-03T17:46:58;2.53;;;1.10;;
67514;SDS011;60646;55.802;37.032;2023-03-03T17:52:54;2.47;;;0.90;;
67514;SDS011;60646;55.802;37.032;2023-03-03T18:09:23;2.63;;;0.80;;
67514;SDS011;60646;55.802;37.032;2023-03-03T18:11:58;2.25;;;1.00;;
67514;SDS011;60646;55.802;37.032;2023-03-03T18:17:41;2.47;;;1.00;;
67514;SDS011;60646;55.802;37.032;2023-03-03T18:20:20;1.48;;;0.73;;
67514;SDS011;60646;55.802;37.032;2023-03-03T18:23:42;1.52;;;0.60;;
67514;SDS011;60646;55.802;37.032;2023-03-03T18:29:05;1.27;;;0.80;;
67514;SDS011;60646;55.802;37.032;2023-03-03T18:37:07;7.78;;;2.58;;
67514;SDS011;60646;55.802;37.032;2023-03-03T18:45:46;9.25;;;2.90;;
67514;SDS011;60646;55.802;37.032;2023-03-03T18:48:14;5.18;;;1.30;;
67514;SDS011;60646;55.802;37.032;2023-03-03T18:50:42;1.95;;;0.90;;
67514;SDS011;60646;55.802;37.032;2023-03-03T18:55:56;2.63;;;0.90;;
67514;SDS011;60646;55.802;37.032;2023-03-03T19:01:05;2.92;;;0.90;;
67514;SDS011;60646;55.802;37.032;2023-03-03T19:06:28;1.50;;;0.70;;
67514;SDS011;60646;55.802;37.032;2023-03-03T19:08:57;2.13;;;0.90;;
67514;SDS011;60646;55.802;37.032;2023-03-03T19:16:41;3.90;;;0.90;;
67514;SDS011;60646;55.802;37.032;2023-03-03T19:19:15;4.65;;;0.80;;
67514;SDS011;60646;55.802;37.032;2023-03-03T19:21:44;2.20;;;1.10;;
67514;SDS011;60646;55.802;37.032;2023-03-03T19:34:41;1.85;;;0.90;;
67514;SDS011;60646;55.802;37.032;2023-03-03T19:43:30;3.33;;;0.98;;
67514;SDS011;60646;55.802;37.032;2023-03-03T19:51:51;2.88;;;1.40;;
67514;SDS011;60646;55.802;37.032;2023-03-03T20:03:30;2.83;;;1.25;;
67514;SDS011;60646;55.802;37.032;2023-03-03T20:14:48;3.40;;;1.42;;
67514;SDS011;60646;55.802;37.032;2023-03-03T20:20:00;7.78;;;2.25;;
67514;SDS011;60646;55.802;37.032;2023-03-03T20:31:31;5.15;;;1.88;;
67514;SDS011;60646;55.802;37.032;2023-03-03T20:42:04;3.22;;;1.60;;
67514;SDS011;60646;55.802;37.032;2023-03-03T20:44:38;3.97;;;1.70;;
67514;SDS011;60646;55.802;37.032;2023-03-03T20:47:35;5.07;;;1.75;;
67514;SDS011;60646;55.802;37.032;2023-03-03T20:56:06;3.45;;;1.30;;
67514;SDS011;60646;55.802;37.032;2023-03-03T21:04:21;2.67;;;1.48;;
67514;SDS011;60646;55.802;37.032;2023-03-03T21:06:47;2.80;;;1.30;;
67514;SDS011;60646;55.802;37.032;2023-03-03T21:12:00;2.53;;;1.10;;
67514;SDS011;60646;55.802;37.032;2023-03-03T21:14:33;2.70;;;1.38;;
67514;SDS011;60646;55.802;37.032;2023-03-03T21:17:09;2.22;;;0.90;;
67514;SDS011;60646;55.802;37.032;2023-03-03T21:19:48;3.20;;;1.10;;
67514;SDS011;60646;55.802;37.032;2023-03-03T21:22:14;1.75;;;1.10;;
67514;SDS011;60646;55.802;37.032;2023-03-03T21:24:53;3.70;;;1.52;;
67514;SDS011;60646;55.802;37.032;2023-03-03T21:30:00;4.22;;;1.20;;
67514;SDS011;60646;55.802;37.032;2023-03-03T21:32:33;1.85;;;1.10;;
67514;SDS011;60646;55.802;37.032;2023-03-03T21:35:06;1.50;;;0.90;;
67514;SDS011;60646;55.802;37.032;2023-03-03T21:37:50;1.40;;;0.90;;
67514;SDS011;60646;55.802;37.032;2023-03-03T21:40:25;1.33;;;0.80;;
67514;SDS011;60646;55.802;37.032;2023-03-03T21:42:57;2.85;;;1.08;;
67514;SDS011;60646;55.802;37.032;2023-03-03T21:45:24;3.03;;;1.00;;
67514;SDS011;60646;55.802;37.032;2023-03-03T21:47:51;2.42;;;1.23;;
67514;SDS011;60646;55.802;37.032;2023-03-03T21:50:22;3.30;;;0.90;;
67514;SDS011;60646;55.802;37.032;2023-03-03T21:53:07;2.25;;;1.10;;
67514;SDS011;60646;55.802;37.032;2023-03-03T21:55:33;1.95;;;0.70;;
67514;SDS011;60646;55.802;37.032;2023-03-03T21:57:58;3.70;;;1.10;;
67514;SDS011;60646;55.802;37.032;2023-03-03T22:00:24;2.20;;;1.17;;
67514;SDS011;60646;55.802;37.032;2023-03-03T22:02:50;3.30;;;1.30;;
67514;SDS011;60646;55.802;37.032;2023-03-03T22:05:16;1.63;;;1.00;;
67514;SDS011;60646;55.802;37.032;2023-03-03T22:07:41;2.42;;;1.10;;
67514;SDS011;60646;55.802;37.032;2023-03-03T22:10:07;2.00;;;1.40;;
67514;SDS011;60646;55.802;37.032;2023-03-03T22:12:34;2.47;;;0.93;;
67514;SDS011;60646;55.802;37.032;2023-03-03T22:14:59;2.70;;;0.90;;
67514;SDS011;60646;55.802;37.032;2023-03-03T22:17:25;1.63;;;0.90;;
67514;SDS011;60646;55.802;37.032;2023-03-03T22:19:51;2.83;;;0.90;;
67514;SDS011;60646;55.802;37.032;2023-03-03T22:22:17;2.45;;;0.77;;
67514;SDS011;60646;55.802;37.032;2023-03-03T22:24:42;2.75;;;0.90;;
67514;SDS011;60646;55.802;37.032;2023-03-03T22:27:08;1.65;;;0.82;;
67514;SDS011;60646;55.802;37.032;2023-03-03T22:29:36;2.25;;;1.00;;
67514;SDS011;60646;55.802;37.032;2023-03-03T22:32:01;2.17;;;0.80;;
67514;SDS011;60646;55.802;37.032;2023-03-03T22:34:27;1.13;;;0.80;;
67514;SDS011;60646;55.802;37.032;2023-03-03T22:36:53;1.45;;;0.90;;
67514;SDS011;60646;55.802;37.032;2023-03-03T22:39:19;2.22;;;0.95;;